DLH125 EDDM-BIKF
Flight info
| Callsign | DLH125 |
|---|---|
| Flight time | N/A |
| Altitude | 32000 |
| Route | INPUD3Q INPUD Y102 UPALA M726 LASGA DCT KUMER DCT REXMI DCT KARLI/N0448F340 DCT ALOTI DCT NALAN/M078F340 DCT 62N010W DCT ALDAN DCT ASRUN ASRUN4N |
| Aircraft | A21N/M-SDE3FGHIRWY/LB1 |
Departure
| Time | 2026-05-06 13:31 |
|---|---|
| Airport | Munich Airport (EDDM) |
Arrival
| Time | N/A |
|---|---|
| Airport | Keflavik International Airport (BIKF) |
| Time | Latitude | Longitude | Altitude | Speed | Heading |
|---|---|---|---|---|---|
| 2026-05-06 12:58 | 48.35457 | 11.79299 | 1468 ft | 0 kts | 263° |
| 2026-05-06 13:20 | 48.35458 | 11.79315 | 1468 ft | 2 kts | 263° |
| 2026-05-06 13:20 | 48.35460 | 11.79337 | 1468 ft | 2 kts | 263° |
| 2026-05-06 13:20 | 48.35461 | 11.79359 | 1467 ft | 2 kts | 263° |
| 2026-05-06 13:20 | 48.35463 | 11.79382 | 1467 ft | 2 kts | 263° |
| 2026-05-06 13:21 | 48.35465 | 11.79404 | 1467 ft | 2 kts | 263° |
| 2026-05-06 13:21 | 48.35464 | 11.79427 | 1467 ft | 2 kts | 294° |
| 2026-05-06 13:21 | 48.35456 | 11.79445 | 1467 ft | 2 kts | 320° |
| 2026-05-06 13:21 | 48.35442 | 11.79456 | 1467 ft | 1 kts | 348° |
| 2026-05-06 13:22 | 48.35436 | 11.79457 | 1466 ft | 1 kts | 357° |
| 2026-05-06 13:22 | 48.35433 | 11.79458 | 1466 ft | 0 kts | 354° |
| 2026-05-06 13:23 | 48.35434 | 11.79457 | 1466 ft | 0 kts | 354° |
| 2026-05-06 13:23 | 48.35466 | 11.79452 | 1467 ft | 5 kts | 353° |
| 2026-05-06 13:24 | 48.35532 | 11.79440 | 1468 ft | 13 kts | 353° |
| 2026-05-06 13:24 | 48.35647 | 11.79420 | 1468 ft | 18 kts | 354° |
| 2026-05-06 13:24 | 48.35772 | 11.79401 | 1468 ft | 17 kts | 354° |
| 2026-05-06 13:24 | 48.35892 | 11.79375 | 1468 ft | 18 kts | 341° |
| 2026-05-06 13:25 | 48.36006 | 11.79331 | 1467 ft | 13 kts | 354° |
| 2026-05-06 13:25 | 48.36087 | 11.79271 | 1466 ft | 11 kts | 281° |
| 2026-05-06 13:25 | 48.36083 | 11.79163 | 1466 ft | 11 kts | 263° |
| 2026-05-06 13:25 | 48.36072 | 11.79026 | 1466 ft | 14 kts | 263° |
| 2026-05-06 13:26 | 48.36060 | 11.78857 | 1467 ft | 17 kts | 265° |
| 2026-05-06 13:26 | 48.36045 | 11.78667 | 1469 ft | 18 kts | 263° |
| 2026-05-06 13:26 | 48.36029 | 11.78459 | 1470 ft | 21 kts | 264° |
| 2026-05-06 13:26 | 48.36014 | 11.78222 | 1465 ft | 24 kts | 263° |
| 2026-05-06 13:27 | 48.35991 | 11.77944 | 1462 ft | 27 kts | 264° |
| 2026-05-06 13:27 | 48.35970 | 11.77653 | 1462 ft | 28 kts | 264° |
| 2026-05-06 13:27 | 48.35944 | 11.77362 | 1467 ft | 26 kts | 263° |
| 2026-05-06 13:27 | 48.35927 | 11.77125 | 1471 ft | 16 kts | 271° |
| 2026-05-06 13:28 | 48.35987 | 11.76989 | 1471 ft | 16 kts | 338° |
| 2026-05-06 13:28 | 48.36069 | 11.76967 | 1471 ft | 7 kts | 354° |
| 2026-05-06 13:28 | 48.36086 | 11.76964 | 1471 ft | 0 kts | 354° |
| 2026-05-06 13:28 | 48.36091 | 11.76963 | 1471 ft | 1 kts | 354° |
| 2026-05-06 13:29 | 48.36100 | 11.76962 | 1471 ft | 1 kts | 354° |
| 2026-05-06 13:29 | 48.36121 | 11.76959 | 1471 ft | 9 kts | 354° |
| 2026-05-06 13:29 | 48.36191 | 11.76947 | 1471 ft | 11 kts | 352° |
| 2026-05-06 13:29 | 48.36272 | 11.76943 | 1469 ft | 11 kts | 39° |
| 2026-05-06 13:30 | 48.36315 | 11.77274 | 1466 ft | 61 kts | 84° |
| 2026-05-06 13:30 | 48.36392 | 11.78257 | 1461 ft | 126 kts | 83° |
| 2026-05-06 13:30 | 48.36515 | 11.79829 | 1461 ft | 177 kts | 82° |
| 2026-05-06 13:30 | 48.36656 | 11.81680 | 1955 ft | 181 kts | 82° |
| 2026-05-06 13:31 | 48.36813 | 11.83594 | 2547 ft | 187 kts | 82° |
| 2026-05-06 13:31 | 48.37018 | 11.85496 | 3251 ft | 184 kts | 70° |
| 2026-05-06 13:31 | 48.37783 | 11.86926 | 3635 ft | 186 kts | 27° |
| 2026-05-06 13:31 | 48.39090 | 11.87169 | 3892 ft | 199 kts | 352° |
| 2026-05-06 13:32 | 48.40494 | 11.86779 | 4140 ft | 211 kts | 354° |
| 2026-05-06 13:32 | 48.41994 | 11.86431 | 4377 ft | 227 kts | 342° |
| 2026-05-06 13:32 | 48.43320 | 11.85002 | 4572 ft | 247 kts | 310° |
| 2026-05-06 13:32 | 48.44369 | 11.82880 | 4943 ft | 260 kts | 306° |
| 2026-05-06 13:33 | 48.45452 | 11.80607 | 5294 ft | 273 kts | 308° |
| 2026-05-06 13:33 | 48.46615 | 11.78313 | 5845 ft | 278 kts | 309° |
| 2026-05-06 13:33 | 48.47825 | 11.76051 | 6458 ft | 280 kts | 310° |
| 2026-05-06 13:33 | 48.49058 | 11.73819 | 7042 ft | 283 kts | 310° |
| 2026-05-06 13:34 | 48.50335 | 11.71546 | 7603 ft | 286 kts | 310° |
| 2026-05-06 13:34 | 48.51632 | 11.69247 | 8169 ft | 289 kts | 310° |
| 2026-05-06 13:34 | 48.52942 | 11.66934 | 8734 ft | 291 kts | 309° |
| 2026-05-06 13:34 | 48.54258 | 11.64608 | 9274 ft | 294 kts | 309° |
| 2026-05-06 13:35 | 48.55583 | 11.62266 | 9806 ft | 297 kts | 309° |
| 2026-05-06 13:35 | 48.57056 | 11.60103 | 10314 ft | 301 kts | 322° |
| 2026-05-06 13:35 | 48.58880 | 11.58529 | 10719 ft | 310 kts | 335° |
| 2026-05-06 13:35 | 48.60947 | 11.57300 | 10962 ft | 323 kts | 339° |
| 2026-05-06 13:36 | 48.63093 | 11.56119 | 11197 ft | 336 kts | 339° |
| 2026-05-06 13:36 | 48.65320 | 11.54880 | 11432 ft | 347 kts | 338° |
| 2026-05-06 13:36 | 48.67602 | 11.53584 | 11820 ft | 353 kts | 338° |
| 2026-05-06 13:36 | 48.69893 | 11.52270 | 12326 ft | 356 kts | 338° |
| 2026-05-06 13:37 | 48.72194 | 11.50944 | 12821 ft | 358 kts | 337° |
| 2026-05-06 13:37 | 48.74535 | 11.49589 | 13288 ft | 361 kts | 337° |
| 2026-05-06 13:37 | 48.76880 | 11.48229 | 13761 ft | 363 kts | 337° |
| 2026-05-06 13:37 | 48.79258 | 11.46848 | 14220 ft | 366 kts | 337° |
| 2026-05-06 13:38 | 48.81618 | 11.45475 | 14685 ft | 368 kts | 337° |
| 2026-05-06 13:38 | 48.83996 | 11.44092 | 15198 ft | 368 kts | 336° |
| 2026-05-06 13:38 | 48.86408 | 11.42687 | 15654 ft | 370 kts | 336° |
| 2026-05-06 13:38 | 48.88821 | 11.41279 | 16097 ft | 372 kts | 336° |
| 2026-05-06 13:39 | 48.91243 | 11.39864 | 16532 ft | 375 kts | 336° |
| 2026-05-06 13:39 | 48.93667 | 11.38447 | 16946 ft | 377 kts | 336° |
| 2026-05-06 13:39 | 48.96135 | 11.37003 | 17352 ft | 379 kts | 336° |
| 2026-05-06 13:39 | 48.98572 | 11.35576 | 17772 ft | 381 kts | 336° |
| 2026-05-06 13:40 | 49.01091 | 11.34100 | 18177 ft | 383 kts | 335° |
| 2026-05-06 13:40 | 49.03563 | 11.32648 | 18562 ft | 386 kts | 335° |
| 2026-05-06 13:40 | 49.06090 | 11.31160 | 18938 ft | 388 kts | 335° |
| 2026-05-06 13:40 | 49.08586 | 11.29690 | 19280 ft | 391 kts | 335° |
| 2026-05-06 13:41 | 49.11138 | 11.28186 | 19632 ft | 393 kts | 335° |
| 2026-05-06 13:41 | 49.13697 | 11.26677 | 19981 ft | 395 kts | 335° |
| 2026-05-06 13:41 | 49.16260 | 11.25165 | 20321 ft | 397 kts | 335° |
| 2026-05-06 13:41 | 49.18858 | 11.23654 | 20663 ft | 400 kts | 338° |
| 2026-05-06 13:42 | 49.21539 | 11.22561 | 20974 ft | 406 kts | 346° |
| 2026-05-06 13:42 | 49.24377 | 11.22067 | 21301 ft | 410 kts | 355° |
| 2026-05-06 13:42 | 49.27237 | 11.22022 | 21631 ft | 412 kts | 358° |
| 2026-05-06 13:42 | 49.30096 | 11.22079 | 21937 ft | 415 kts | 358° |
| 2026-05-06 13:43 | 49.32978 | 11.22143 | 22296 ft | 415 kts | 358° |
| 2026-05-06 13:43 | 49.35841 | 11.22196 | 22729 ft | 413 kts | 358° |
| 2026-05-06 13:43 | 49.38732 | 11.22236 | 23045 ft | 415 kts | 358° |
| 2026-05-06 13:43 | 49.41601 | 11.22267 | 23316 ft | 417 kts | 358° |
| 2026-05-06 13:44 | 49.44498 | 11.22292 | 23604 ft | 419 kts | 358° |
| 2026-05-06 13:44 | 49.47404 | 11.22316 | 23926 ft | 420 kts | 358° |
| 2026-05-06 13:44 | 49.50328 | 11.22337 | 24218 ft | 422 kts | 358° |
| 2026-05-06 13:44 | 49.53279 | 11.22361 | 24454 ft | 425 kts | 358° |
| 2026-05-06 13:45 | 49.56251 | 11.22384 | 24729 ft | 427 kts | 358° |
| 2026-05-06 13:45 | 49.62191 | 11.22402 | 25239 ft | 430 kts | 357° |
| 2026-05-06 13:45 | 49.65169 | 11.22406 | 25484 ft | 432 kts | 357° |
| 2026-05-06 13:46 | 49.68192 | 11.22233 | 25690 ft | 432 kts | 349° |
| 2026-05-06 13:46 | 49.71148 | 11.21420 | 25942 ft | 431 kts | 345° |
| 2026-05-06 13:46 | 49.74073 | 11.20420 | 26196 ft | 432 kts | 343° |
| 2026-05-06 13:46 | 49.76999 | 11.19414 | 26426 ft | 434 kts | 344° |
| 2026-05-06 13:47 | 49.79969 | 11.18429 | 26649 ft | 436 kts | 345° |
| 2026-05-06 13:47 | 49.82929 | 11.17476 | 26860 ft | 438 kts | 345° |
| 2026-05-06 13:47 | 49.85883 | 11.16546 | 27059 ft | 440 kts | 345° |
| 2026-05-06 13:47 | 49.88930 | 11.15601 | 27294 ft | 441 kts | 345° |
| 2026-05-06 13:48 | 49.91903 | 11.14685 | 27504 ft | 443 kts | 345° |
| 2026-05-06 13:48 | 49.94929 | 11.13757 | 27699 ft | 445 kts | 345° |
| 2026-05-06 13:48 | 49.97971 | 11.12822 | 27893 ft | 447 kts | 345° |
| 2026-05-06 13:48 | 50.01044 | 11.11881 | 28075 ft | 449 kts | 345° |
| 2026-05-06 13:49 | 50.04087 | 11.10947 | 28313 ft | 448 kts | 345° |
| 2026-05-06 13:49 | 50.07129 | 11.10016 | 28731 ft | 445 kts | 345° |
| 2026-05-06 13:49 | 50.10136 | 11.09093 | 29128 ft | 441 kts | 345° |
| 2026-05-06 13:49 | 50.13149 | 11.08167 | 29529 ft | 438 kts | 345° |
| 2026-05-06 13:50 | 50.16113 | 11.07255 | 29939 ft | 434 kts | 345° |
| 2026-05-06 13:50 | 50.19036 | 11.06350 | 30272 ft | 432 kts | 344° |
| 2026-05-06 13:50 | 50.22002 | 11.05432 | 30544 ft | 431 kts | 344° |
| 2026-05-06 13:50 | 50.24922 | 11.04527 | 30704 ft | 433 kts | 344° |
| 2026-05-06 13:51 | 50.30866 | 11.02676 | 30860 ft | 440 kts | 344° |
| 2026-05-06 13:51 | 50.33882 | 11.01739 | 30964 ft | 444 kts | 344° |
| 2026-05-06 13:51 | 50.36924 | 11.00790 | 31044 ft | 447 kts | 344° |
| 2026-05-06 13:52 | 50.43058 | 10.98877 | 31201 ft | 454 kts | 344° |
| 2026-05-06 13:52 | 50.49252 | 10.96940 | 31351 ft | 460 kts | 344° |
| 2026-05-06 13:53 | 50.55573 | 10.94958 | 31511 ft | 466 kts | 344° |
| 2026-05-06 13:53 | 50.61936 | 10.92958 | 31654 ft | 471 kts | 344° |
| 2026-05-06 13:54 | 50.68357 | 10.90934 | 31732 ft | 471 kts | 344° |
| 2026-05-06 13:54 | 50.74796 | 10.88904 | 31769 ft | 471 kts | 344° |
| 2026-05-06 13:55 | 50.81203 | 10.86875 | 31751 ft | 469 kts | 344° |
| 2026-05-06 13:55 | 50.87561 | 10.84851 | 31752 ft | 469 kts | 344° |
| 2026-05-06 13:56 | 50.93945 | 10.82817 | 31757 ft | 468 kts | 344° |
| 2026-05-06 13:56 | 51.00306 | 10.80781 | 31749 ft | 467 kts | 344° |
| 2026-05-06 13:57 | 51.06656 | 10.78745 | 31739 ft | 467 kts | 344° |
| 2026-05-06 13:57 | 51.13003 | 10.76703 | 31735 ft | 466 kts | 344° |
| 2026-05-06 13:58 | 51.19346 | 10.74656 | 31715 ft | 467 kts | 345° |
| 2026-05-06 13:58 | 51.25726 | 10.72592 | 31734 ft | 467 kts | 345° |
| 2026-05-06 13:59 | 51.32077 | 10.70534 | 31733 ft | 467 kts | 345° |
| 2026-05-06 13:59 | 51.38432 | 10.68465 | 31730 ft | 467 kts | 345° |
| 2026-05-06 14:00 | 51.44769 | 10.66396 | 31733 ft | 467 kts | 345° |
| 2026-05-06 14:00 | 51.51065 | 10.64122 | 31741 ft | 464 kts | 341° |
| 2026-05-06 14:01 | 51.57144 | 10.60798 | 31740 ft | 460 kts | 334° |
| 2026-05-06 14:01 | 51.62941 | 10.56531 | 31736 ft | 458 kts | 331° |
| 2026-05-06 14:02 | 51.68669 | 10.52100 | 31732 ft | 458 kts | 331° |
| 2026-05-06 14:02 | 51.74415 | 10.47656 | 31731 ft | 458 kts | 332° |
| 2026-05-06 14:03 | 51.80154 | 10.43226 | 31729 ft | 459 kts | 332° |
| 2026-05-06 14:03 | 51.85890 | 10.38790 | 31738 ft | 458 kts | 332° |
| 2026-05-06 14:04 | 51.91607 | 10.34351 | 31742 ft | 457 kts | 331° |
| 2026-05-06 14:04 | 51.97343 | 10.29893 | 31754 ft | 457 kts | 331° |
| 2026-05-06 14:05 | 52.03061 | 10.25433 | 31766 ft | 457 kts | 332° |
| 2026-05-06 14:05 | 52.08762 | 10.20973 | 31776 ft | 456 kts | 332° |
| 2026-05-06 14:06 | 52.14497 | 10.16476 | 31779 ft | 457 kts | 332° |
| 2026-05-06 14:06 | 52.17348 | 10.14234 | 31777 ft | 457 kts | 332° |
| 2026-05-06 14:07 | 52.25763 | 10.07601 | 31785 ft | 458 kts | 332° |
| 2026-05-06 14:07 | 52.31462 | 10.03094 | 31785 ft | 458 kts | 332° |
| 2026-05-06 14:08 | 52.37166 | 9.98568 | 31806 ft | 458 kts | 333° |
| 2026-05-06 14:08 | 52.42902 | 9.94004 | 31801 ft | 457 kts | 333° |
| 2026-05-06 14:09 | 52.48581 | 9.89472 | 31821 ft | 457 kts | 333° |
| 2026-05-06 14:09 | 52.54277 | 9.84916 | 31821 ft | 456 kts | 333° |
| 2026-05-06 14:10 | 52.59945 | 9.80366 | 31822 ft | 456 kts | 333° |
| 2026-05-06 14:10 | 52.65645 | 9.75778 | 31827 ft | 456 kts | 333° |
| 2026-05-06 14:11 | 52.71320 | 9.71197 | 31827 ft | 455 kts | 333° |
| 2026-05-06 14:11 | 52.76985 | 9.66611 | 31811 ft | 455 kts | 334° |
| 2026-05-06 14:12 | 52.82645 | 9.62016 | 31831 ft | 454 kts | 334° |
| 2026-05-06 14:12 | 52.88306 | 9.57409 | 31835 ft | 453 kts | 334° |
| 2026-05-06 14:13 | 52.93926 | 9.52819 | 31824 ft | 453 kts | 334° |
| 2026-05-06 14:13 | 52.99550 | 9.48212 | 31829 ft | 452 kts | 334° |
| 2026-05-06 14:14 | 53.05196 | 9.43573 | 31831 ft | 453 kts | 334° |
| 2026-05-06 14:14 | 53.10830 | 9.38932 | 31830 ft | 453 kts | 334° |
| 2026-05-06 14:15 | 53.16478 | 9.34264 | 31834 ft | 454 kts | 333° |
| 2026-05-06 14:15 | 53.22095 | 9.29608 | 31837 ft | 454 kts | 333° |
| 2026-05-06 14:16 | 53.27734 | 9.24923 | 31842 ft | 455 kts | 333° |
| 2026-05-06 14:16 | 53.33398 | 9.20203 | 31848 ft | 455 kts | 333° |
| 2026-05-06 14:17 | 53.39034 | 9.15489 | 31854 ft | 455 kts | 333° |
| 2026-05-06 14:17 | 53.44667 | 9.10763 | 31860 ft | 455 kts | 333° |
| 2026-05-06 14:18 | 53.50293 | 9.06032 | 31868 ft | 455 kts | 332° |
| 2026-05-06 14:18 | 53.55956 | 9.01253 | 31869 ft | 456 kts | 332° |
| 2026-05-06 14:19 | 53.61599 | 8.96478 | 31871 ft | 456 kts | 332° |
| 2026-05-06 14:19 | 53.67250 | 8.91683 | 31867 ft | 457 kts | 332° |
| 2026-05-06 14:20 | 53.72909 | 8.86862 | 31866 ft | 456 kts | 332° |
| 2026-05-06 14:20 | 53.78538 | 8.82056 | 31867 ft | 456 kts | 332° |
| 2026-05-06 14:21 | 53.84197 | 8.77207 | 31869 ft | 457 kts | 332° |
| 2026-05-06 14:21 | 53.89848 | 8.72349 | 31868 ft | 457 kts | 332° |
| 2026-05-06 14:22 | 53.95508 | 8.67472 | 31869 ft | 457 kts | 332° |
| 2026-05-06 14:22 | 54.01191 | 8.62562 | 31874 ft | 458 kts | 332° |
| 2026-05-06 14:23 | 54.06843 | 8.57661 | 31875 ft | 459 kts | 331° |
| 2026-05-06 14:23 | 54.12524 | 8.52719 | 31878 ft | 459 kts | 331° |
| 2026-05-06 14:24 | 54.18182 | 8.47783 | 31883 ft | 459 kts | 331° |
| 2026-05-06 14:24 | 54.23835 | 8.42832 | 31886 ft | 459 kts | 331° |
| 2026-05-06 14:25 | 54.29518 | 8.37842 | 31890 ft | 459 kts | 331° |
| 2026-05-06 14:25 | 54.35191 | 8.32845 | 31894 ft | 460 kts | 330° |
| 2026-05-06 14:26 | 54.40845 | 8.27850 | 31896 ft | 459 kts | 330° |
| 2026-05-06 14:26 | 54.46514 | 8.22826 | 31900 ft | 460 kts | 330° |
| 2026-05-06 14:27 | 54.52198 | 8.17772 | 31903 ft | 460 kts | 330° |
| 2026-05-06 14:27 | 54.57873 | 8.12711 | 31905 ft | 460 kts | 329° |
| 2026-05-06 14:28 | 54.63504 | 8.07674 | 31910 ft | 460 kts | 329° |
| 2026-05-06 14:28 | 54.69178 | 8.02581 | 31912 ft | 459 kts | 329° |
| 2026-05-06 14:29 | 54.74823 | 7.97497 | 31916 ft | 459 kts | 329° |
| 2026-05-06 14:29 | 54.80470 | 7.92396 | 31918 ft | 459 kts | 329° |
| 2026-05-06 14:30 | 54.86095 | 7.87294 | 31921 ft | 458 kts | 329° |
| 2026-05-06 14:30 | 54.91732 | 7.82168 | 31926 ft | 457 kts | 329° |
| 2026-05-06 14:31 | 54.97310 | 7.77076 | 31929 ft | 457 kts | 328° |
| 2026-05-06 14:31 | 55.02851 | 7.71664 | 31930 ft | 454 kts | 325° |
| 2026-05-06 14:32 | 55.08218 | 7.66001 | 31930 ft | 454 kts | 324° |
| 2026-05-06 14:32 | 55.13579 | 7.60303 | 31936 ft | 453 kts | 324° |
| 2026-05-06 14:33 | 55.18943 | 7.54593 | 31941 ft | 453 kts | 324° |
| 2026-05-06 14:33 | 55.24323 | 7.48851 | 31946 ft | 453 kts | 324° |
| 2026-05-06 14:34 | 55.29676 | 7.43123 | 31949 ft | 453 kts | 324° |
| 2026-05-06 14:34 | 55.35058 | 7.37347 | 31951 ft | 453 kts | 324° |
| 2026-05-06 14:35 | 55.40383 | 7.31617 | 31958 ft | 452 kts | 323° |
| 2026-05-06 14:35 | 55.45707 | 7.25870 | 31959 ft | 451 kts | 323° |
| 2026-05-06 14:36 | 55.51048 | 7.20083 | 31965 ft | 451 kts | 323° |
| 2026-05-06 14:36 | 55.56369 | 7.14300 | 31965 ft | 451 kts | 323° |
| 2026-05-06 14:37 | 55.61673 | 7.08516 | 31968 ft | 451 kts | 323° |
| 2026-05-06 14:37 | 55.66975 | 7.02715 | 31971 ft | 451 kts | 323° |
| 2026-05-06 14:38 | 55.72301 | 6.96868 | 31970 ft | 451 kts | 323° |
| 2026-05-06 14:38 | 55.77602 | 6.91031 | 31978 ft | 450 kts | 323° |
| 2026-05-06 14:39 | 55.82924 | 6.85149 | 31981 ft | 451 kts | 323° |
| 2026-05-06 14:39 | 55.88210 | 6.79290 | 31977 ft | 450 kts | 323° |
| 2026-05-06 14:40 | 55.93512 | 6.73395 | 31984 ft | 450 kts | 323° |
| 2026-05-06 14:40 | 55.98775 | 6.67527 | 31985 ft | 449 kts | 323° |
| 2026-05-06 14:41 | 56.04074 | 6.61599 | 31988 ft | 449 kts | 323° |
| 2026-05-06 14:41 | 56.09316 | 6.55714 | 31991 ft | 448 kts | 323° |
| 2026-05-06 14:42 | 56.14570 | 6.49793 | 31992 ft | 448 kts | 322° |
| 2026-05-06 14:42 | 56.19834 | 6.43845 | 31995 ft | 447 kts | 322° |
| 2026-05-06 14:43 | 56.25074 | 6.37902 | 31996 ft | 446 kts | 323° |
| 2026-05-06 14:43 | 56.30294 | 6.31964 | 32002 ft | 445 kts | 322° |
| 2026-05-06 14:44 | 56.35519 | 6.26001 | 31999 ft | 445 kts | 322° |
| 2026-05-06 14:45 | 56.43288 | 6.17100 | 32001 ft | 444 kts | 322° |
| 2026-05-06 14:45 | 56.48509 | 6.11090 | 31999 ft | 444 kts | 322° |
| 2026-05-06 14:46 | 56.53688 | 6.05111 | 32001 ft | 443 kts | 322° |
| 2026-05-06 14:46 | 56.58828 | 5.99158 | 32006 ft | 442 kts | 322° |
| 2026-05-06 14:47 | 56.64017 | 5.93126 | 32006 ft | 442 kts | 322° |
| 2026-05-06 14:47 | 56.69151 | 5.87137 | 32010 ft | 441 kts | 322° |
| 2026-05-06 14:48 | 56.74294 | 5.81119 | 32006 ft | 440 kts | 322° |
| 2026-05-06 14:48 | 56.79423 | 5.75098 | 32002 ft | 440 kts | 322° |
| 2026-05-06 14:49 | 56.84551 | 5.69056 | 31994 ft | 439 kts | 322° |
| 2026-05-06 14:49 | 56.89642 | 5.63034 | 31995 ft | 439 kts | 322° |
| 2026-05-06 14:50 | 56.94767 | 5.56936 | 31998 ft | 438 kts | 321° |
| 2026-05-06 14:50 | 56.99566 | 5.50313 | 31993 ft | 433 kts | 315° |
| 2026-05-06 14:51 | 57.03916 | 5.42811 | 32005 ft | 428 kts | 309° |
| 2026-05-06 14:51 | 57.07923 | 5.34794 | 32004 ft | 425 kts | 307° |
| 2026-05-06 14:52 | 57.11854 | 5.26800 | 32006 ft | 424 kts | 307° |
| 2026-05-06 14:52 | 57.15794 | 5.18769 | 31998 ft | 424 kts | 307° |
| 2026-05-06 14:53 | 57.19749 | 5.10693 | 32008 ft | 424 kts | 307° |
| 2026-05-06 14:53 | 57.23660 | 5.02682 | 32026 ft | 423 kts | 307° |
| 2026-05-06 14:54 | 57.27584 | 4.94620 | 32028 ft | 423 kts | 307° |
| 2026-05-06 14:54 | 57.31491 | 4.86564 | 32037 ft | 422 kts | 307° |
| 2026-05-06 14:55 | 57.35389 | 4.78500 | 32035 ft | 422 kts | 307° |
| 2026-05-06 14:55 | 57.39285 | 4.70412 | 32043 ft | 422 kts | 307° |
| 2026-05-06 14:56 | 57.43167 | 4.62324 | 32039 ft | 421 kts | 307° |
| 2026-05-06 14:56 | 57.47042 | 4.54220 | 32036 ft | 419 kts | 307° |
| 2026-05-06 14:57 | 57.50873 | 4.46183 | 32044 ft | 418 kts | 307° |
| 2026-05-06 14:57 | 57.54692 | 4.38148 | 32032 ft | 417 kts | 307° |
| 2026-05-06 14:58 | 57.58532 | 4.30033 | 32046 ft | 416 kts | 306° |
| 2026-05-06 14:58 | 57.62334 | 4.21977 | 32038 ft | 416 kts | 306° |
| 2026-05-06 14:59 | 57.66140 | 4.13879 | 32043 ft | 417 kts | 306° |
| 2026-05-06 14:59 | 57.69920 | 4.05816 | 32041 ft | 415 kts | 306° |
| 2026-05-06 15:00 | 57.73723 | 3.97663 | 32043 ft | 415 kts | 306° |
| 2026-05-06 15:00 | 57.77481 | 3.89588 | 32047 ft | 413 kts | 306° |
| 2026-05-06 15:01 | 57.81230 | 3.81496 | 32043 ft | 412 kts | 307° |
| 2026-05-06 15:01 | 57.84954 | 3.73431 | 32052 ft | 412 kts | 306° |
| 2026-05-06 15:02 | 57.88697 | 3.65298 | 32047 ft | 411 kts | 306° |
| 2026-05-06 15:02 | 57.92258 | 3.56996 | 32050 ft | 409 kts | 302° |
| 2026-05-06 15:03 | 57.95601 | 3.48475 | 32044 ft | 408 kts | 302° |
| 2026-05-06 15:03 | 57.98958 | 3.39846 | 32054 ft | 408 kts | 302° |
| 2026-05-06 15:04 | 58.02285 | 3.31262 | 32058 ft | 407 kts | 301° |
| 2026-05-06 15:04 | 58.05612 | 3.22651 | 32061 ft | 407 kts | 301° |
| 2026-05-06 15:05 | 58.08918 | 3.14066 | 32062 ft | 407 kts | 301° |
| 2026-05-06 15:05 | 58.12236 | 3.05420 | 32060 ft | 406 kts | 301° |
| 2026-05-06 15:06 | 58.15525 | 2.96814 | 32064 ft | 406 kts | 301° |
| 2026-05-06 15:06 | 58.18812 | 2.88189 | 32065 ft | 405 kts | 301° |
| 2026-05-06 15:07 | 58.22096 | 2.79535 | 32058 ft | 405 kts | 301° |
| 2026-05-06 15:07 | 58.25359 | 2.70909 | 32058 ft | 404 kts | 301° |
| 2026-05-06 15:08 | 58.28621 | 2.62253 | 32058 ft | 403 kts | 301° |
| 2026-05-06 15:08 | 58.31871 | 2.53599 | 32065 ft | 403 kts | 301° |
| 2026-05-06 15:09 | 58.35119 | 2.44914 | 32062 ft | 403 kts | 301° |
| 2026-05-06 15:09 | 58.38350 | 2.36246 | 32046 ft | 402 kts | 301° |
| 2026-05-06 15:10 | 58.41554 | 2.27617 | 32046 ft | 401 kts | 301° |
| 2026-05-06 15:10 | 58.44764 | 2.18943 | 32036 ft | 400 kts | 301° |
| 2026-05-06 15:11 | 58.47945 | 2.10320 | 32042 ft | 400 kts | 301° |
| 2026-05-06 15:11 | 58.51134 | 2.01642 | 32039 ft | 400 kts | 301° |
| 2026-05-06 15:12 | 58.54314 | 1.92949 | 32043 ft | 400 kts | 301° |
| 2026-05-06 15:12 | 58.57480 | 1.84270 | 32039 ft | 399 kts | 300° |
| 2026-05-06 15:13 | 58.60634 | 1.75589 | 32035 ft | 399 kts | 301° |
| 2026-05-06 15:13 | 58.63785 | 1.66885 | 32034 ft | 398 kts | 301° |
| 2026-05-06 15:14 | 58.66942 | 1.58133 | 32028 ft | 398 kts | 301° |
| 2026-05-06 15:14 | 58.70075 | 1.49415 | 32034 ft | 398 kts | 301° |
| 2026-05-06 15:15 | 58.73183 | 1.40736 | 32032 ft | 397 kts | 301° |
| 2026-05-06 15:15 | 58.76290 | 1.32025 | 32033 ft | 396 kts | 300° |
| 2026-05-06 15:16 | 58.79390 | 1.23305 | 32026 ft | 395 kts | 300° |
| 2026-05-06 15:16 | 58.82474 | 1.14596 | 32025 ft | 395 kts | 300° |
| 2026-05-06 15:17 | 58.85567 | 1.05825 | 32030 ft | 396 kts | 300° |
| 2026-05-06 15:17 | 58.88636 | 0.97092 | 32029 ft | 394 kts | 300° |
| 2026-05-06 15:18 | 58.91689 | 0.88372 | 32030 ft | 394 kts | 301° |
| 2026-05-06 15:18 | 58.94735 | 0.79649 | 32032 ft | 393 kts | 301° |
| 2026-05-06 15:19 | 58.97758 | 0.70952 | 32031 ft | 392 kts | 301° |
| 2026-05-06 15:19 | 59.00796 | 0.62185 | 32028 ft | 391 kts | 301° |
| 2026-05-06 15:20 | 59.03822 | 0.53419 | 32011 ft | 391 kts | 301° |
| 2026-05-06 15:20 | 59.06822 | 0.44689 | 32019 ft | 390 kts | 301° |
| 2026-05-06 15:21 | 59.09826 | 0.35916 | 32010 ft | 389 kts | 301° |
| 2026-05-06 15:21 | 59.12799 | 0.27205 | 32004 ft | 389 kts | 300° |
| 2026-05-06 15:22 | 59.15787 | 0.18418 | 32002 ft | 389 kts | 300° |
| 2026-05-06 15:22 | 59.18744 | 0.09693 | 32013 ft | 388 kts | 300° |
| 2026-05-06 15:23 | 59.21703 | 0.00923 | 32014 ft | 388 kts | 300° |
| 2026-05-06 15:23 | 59.24656 | -0.07859 | 32017 ft | 388 kts | 300° |
| 2026-05-06 15:24 | 59.27599 | -0.16647 | 32018 ft | 388 kts | 300° |
| 2026-05-06 15:24 | 59.30531 | -0.25429 | 32004 ft | 387 kts | 300° |
| 2026-05-06 15:25 | 59.33465 | -0.34255 | 31999 ft | 387 kts | 300° |
| 2026-05-06 15:25 | 59.36370 | -0.43025 | 32012 ft | 386 kts | 300° |
| 2026-05-06 15:26 | 59.39284 | -0.51856 | 32010 ft | 386 kts | 300° |
| 2026-05-06 15:26 | 59.42182 | -0.60667 | 32013 ft | 385 kts | 300° |
| 2026-05-06 15:27 | 59.45068 | -0.69489 | 32022 ft | 385 kts | 300° |
| 2026-05-06 15:27 | 59.47949 | -0.78312 | 32015 ft | 385 kts | 300° |
| 2026-05-06 15:28 | 59.50800 | -0.87086 | 32017 ft | 384 kts | 300° |
| 2026-05-06 15:28 | 59.53657 | -0.95910 | 32013 ft | 384 kts | 300° |
| 2026-05-06 15:29 | 59.56529 | -1.04809 | 32019 ft | 384 kts | 300° |
| 2026-05-06 15:29 | 59.59368 | -1.13640 | 32016 ft | 384 kts | 300° |
| 2026-05-06 15:30 | 59.62217 | -1.22542 | 32025 ft | 383 kts | 300° |
| 2026-05-06 15:30 | 59.65048 | -1.31414 | 32022 ft | 383 kts | 300° |
| 2026-05-06 15:31 | 59.67864 | -1.40278 | 32026 ft | 383 kts | 300° |
| 2026-05-06 15:31 | 59.70684 | -1.49187 | 32023 ft | 382 kts | 300° |
| 2026-05-06 15:32 | 59.74872 | -1.62479 | 32028 ft | 382 kts | 300° |
| 2026-05-06 15:32 | 59.77670 | -1.71409 | 32023 ft | 381 kts | 299° |
| 2026-05-06 15:33 | 59.80456 | -1.80332 | 32018 ft | 381 kts | 299° |
| 2026-05-06 15:33 | 59.83234 | -1.89257 | 32024 ft | 380 kts | 299° |
| 2026-05-06 15:34 | 59.85989 | -1.98143 | 32022 ft | 379 kts | 299° |
| 2026-05-06 15:34 | 59.88735 | -2.07034 | 32026 ft | 378 kts | 299° |
| 2026-05-06 15:35 | 59.91480 | -2.15958 | 32021 ft | 378 kts | 299° |
| 2026-05-06 15:35 | 59.94211 | -2.24873 | 32020 ft | 378 kts | 299° |
| 2026-05-06 15:36 | 59.96930 | -2.33785 | 32018 ft | 377 kts | 299° |
| 2026-05-06 15:36 | 59.99646 | -2.42722 | 32008 ft | 377 kts | 299° |
| 2026-05-06 15:37 | 60.02344 | -2.51625 | 32000 ft | 377 kts | 299° |
| 2026-05-06 15:37 | 60.05047 | -2.60583 | 31999 ft | 378 kts | 299° |
| 2026-05-06 15:38 | 60.07745 | -2.69566 | 31990 ft | 378 kts | 298° |
| 2026-05-06 15:38 | 60.10450 | -2.78599 | 31987 ft | 379 kts | 298° |
| 2026-05-06 15:39 | 60.13132 | -2.87596 | 32001 ft | 379 kts | 298° |
| 2026-05-06 15:39 | 60.15822 | -2.96652 | 31977 ft | 379 kts | 298° |
| 2026-05-06 15:40 | 60.18505 | -3.05720 | 31974 ft | 379 kts | 298° |
| 2026-05-06 15:40 | 60.21184 | -3.14816 | 31999 ft | 380 kts | 298° |
| 2026-05-06 15:41 | 60.23865 | -3.23946 | 31990 ft | 380 kts | 298° |
| 2026-05-06 15:41 | 60.26541 | -3.33094 | 31990 ft | 381 kts | 298° |
| 2026-05-06 15:42 | 60.29211 | -3.42267 | 31997 ft | 381 kts | 298° |
| 2026-05-06 15:42 | 60.31871 | -3.51443 | 31986 ft | 382 kts | 298° |
| 2026-05-06 15:43 | 60.34542 | -3.60687 | 31978 ft | 384 kts | 298° |
| 2026-05-06 15:43 | 60.37219 | -3.69997 | 31987 ft | 384 kts | 297° |
| 2026-05-06 15:44 | 60.39886 | -3.79304 | 31989 ft | 384 kts | 297° |
| 2026-05-06 15:44 | 60.42550 | -3.88636 | 31993 ft | 385 kts | 297° |
| 2026-05-06 15:45 | 60.45225 | -3.98048 | 31991 ft | 385 kts | 297° |
| 2026-05-06 15:45 | 60.47874 | -4.07411 | 31991 ft | 386 kts | 297° |
| 2026-05-06 15:46 | 60.50519 | -4.16793 | 31987 ft | 386 kts | 297° |
| 2026-05-06 15:46 | 60.53179 | -4.26268 | 31986 ft | 386 kts | 297° |
| 2026-05-06 15:47 | 60.55825 | -4.35734 | 31986 ft | 386 kts | 297° |
| 2026-05-06 15:47 | 60.58454 | -4.45182 | 31992 ft | 386 kts | 297° |
| 2026-05-06 15:48 | 60.61077 | -4.54647 | 31996 ft | 386 kts | 297° |
| 2026-05-06 15:48 | 60.63698 | -4.64140 | 31977 ft | 387 kts | 297° |
| 2026-05-06 15:49 | 60.66333 | -4.73731 | 31988 ft | 387 kts | 296° |
| 2026-05-06 15:49 | 60.68948 | -4.83280 | 31989 ft | 387 kts | 296° |
| 2026-05-06 15:50 | 60.71538 | -4.92788 | 31981 ft | 387 kts | 296° |
| 2026-05-06 15:50 | 60.74142 | -5.02379 | 31982 ft | 387 kts | 296° |
| 2026-05-06 15:51 | 60.76738 | -5.11986 | 31991 ft | 387 kts | 296° |
| 2026-05-06 15:51 | 60.79334 | -5.21634 | 31983 ft | 388 kts | 296° |
| 2026-05-06 15:52 | 60.81911 | -5.31254 | 31986 ft | 389 kts | 296° |
| 2026-05-06 15:52 | 60.84503 | -5.40972 | 31988 ft | 389 kts | 296° |
| 2026-05-06 15:53 | 60.87080 | -5.50675 | 31992 ft | 389 kts | 296° |